sensor_id;sensor_type;location;lat;lon;timestamp;pressure;altitude;pressure_sealevel;temperature;humidity
41800;BME280;27468;47.460;19.034;2023-05-23T00:01:30;100143.91;;;17.13;79.42
41800;BME280;27468;47.460;19.034;2023-05-23T00:04:01;100085.06;;;16.83;79.14
41800;BME280;27468;47.460;19.034;2023-05-23T00:06:27;100122.13;;;17.05;79.58
41800;BME280;27468;47.460;19.034;2023-05-23T00:08:53;100125.72;;;17.04;80.20
41800;BME280;27468;47.460;19.034;2023-05-23T00:11:18;100116.31;;;16.97;80.26
41800;BME280;27468;47.460;19.034;2023-05-23T00:13:44;100100.72;;;16.89;79.60
41800;BME280;27468;47.460;19.034;2023-05-23T00:16:10;100100.88;;;16.86;79.39
41800;BME280;27468;47.460;19.034;2023-05-23T00:18:36;100123.38;;;16.98;80.21
41800;BME280;27468;47.460;19.034;2023-05-23T00:21:02;100066.53;;;16.63;80.55
41800;BME280;27468;47.460;19.034;2023-05-23T00:23:28;100117.41;;;16.93;80.40
41800;BME280;27468;47.460;19.034;2023-05-23T00:25:54;100098.50;;;16.80;80.83
41800;BME280;27468;47.460;19.034;2023-05-23T00:28:20;100114.25;;;16.84;80.92
41800;BME280;27468;47.460;19.034;2023-05-23T00:30:46;100068.56;;;16.58;81.18
41800;BME280;27468;47.460;19.034;2023-05-23T00:33:14;100127.56;;;16.84;81.04
41800;BME280;27468;47.460;19.034;2023-05-23T00:35:40;100119.75;;;16.81;80.63
41800;BME280;27468;47.460;19.034;2023-05-23T00:38:06;100064.63;;;16.47;81.11
41800;BME280;27468;47.460;19.034;2023-05-23T00:40:32;100112.38;;;16.69;81.53
41800;BME280;27468;47.460;19.034;2023-05-23T00:42:59;100119.56;;;16.67;81.38
41800;BME280;27468;47.460;19.034;2023-05-23T00:45:25;100132.66;;;16.72;81.73
41800;BME280;27468;47.460;19.034;2023-05-23T00:47:51;100129.47;;;16.64;81.74
41800;BME280;27468;47.460;19.034;2023-05-23T00:50:17;100087.84;;;16.44;81.40
41800;BME280;27468;47.460;19.034;2023-05-23T00:52:45;100126.88;;;16.62;81.28
41800;BME280;27468;47.460;19.034;2023-05-23T00:55:12;100108.72;;;16.53;81.34
41800;BME280;27468;47.460;19.034;2023-05-23T00:57:38;100052.72;;;16.18;81.79
41800;BME280;27468;47.460;19.034;2023-05-23T01:00:09;100120.13;;;16.55;81.81
41800;BME280;27468;47.460;19.034;2023-05-23T01:02:45;100122.88;;;16.54;81.59
41800;BME280;27468;47.460;19.034;2023-05-23T01:05:15;100117.06;;;16.45;82.12
41800;BME280;27468;47.460;19.034;2023-05-23T01:07:45;100118.00;;;16.44;81.54
41800;BME280;27468;47.460;19.034;2023-05-23T01:10:12;100126.84;;;16.45;81.66
41800;BME280;27468;47.460;19.034;2023-05-23T01:15:41;100107.34;;;16.26;81.93
41800;BME280;27468;47.460;19.034;2023-05-23T01:21:22;100111.75;;;16.27;82.06
41800;BME280;27468;47.460;19.034;2023-05-23T01:24:21;100116.28;;;16.25;82.09
41800;BME280;27468;47.460;19.034;2023-05-23T01:29:31;100127.72;;;16.27;81.13
41800;BME280;27468;47.460;19.034;2023-05-23T01:31:58;100111.03;;;16.23;80.95
41800;BME280;27468;47.460;19.034;2023-05-23T01:34:25;100075.19;;;15.94;81.62
41800;BME280;27468;47.460;19.034;2023-05-23T01:36:53;100084.03;;;15.95;82.30
41800;BME280;27468;47.460;19.034;2023-05-23T01:39:22;100078.84;;;15.92;82.08
41800;BME280;27468;47.460;19.034;2023-05-23T01:41:49;100068.72;;;15.81;82.74
41800;BME280;27468;47.460;19.034;2023-05-23T01:44:15;100064.19;;;15.83;82.61
41800;BME280;27468;47.460;19.034;2023-05-23T01:46:41;100058.34;;;15.75;82.52
41800;BME280;27468;47.460;19.034;2023-05-23T01:49:11;100109.88;;;15.91;83.24
41800;BME280;27468;47.460;19.034;2023-05-23T01:51:37;100054.88;;;15.54;83.65
41800;BME280;27468;47.460;19.034;2023-05-23T01:54:03;100109.88;;;15.91;83.19
41800;BME280;27468;47.460;19.034;2023-05-23T01:56:29;100101.13;;;15.89;83.13
41800;BME280;27468;47.460;19.034;2023-05-23T01:58:54;100108.88;;;15.94;82.89
41800;BME280;27468;47.460;19.034;2023-05-23T02:01:20;100094.22;;;15.85;82.97
41800;BME280;27468;47.460;19.034;2023-05-23T02:03:46;100085.72;;;15.77;83.00
41800;BME280;27468;47.460;19.034;2023-05-23T02:06:11;100095.88;;;15.88;82.98
41800;BME280;27468;47.460;19.034;2023-05-23T02:08:37;100092.41;;;15.85;82.49
41800;BME280;27468;47.460;19.034;2023-05-23T02:11:03;100022.41;;;15.47;82.32
41800;BME280;27468;47.460;19.034;2023-05-23T02:13:28;100094.16;;;15.87;82.26
41800;BME280;27468;47.460;19.034;2023-05-23T02:15:53;100093.41;;;15.83;82.92
41800;BME280;27468;47.460;19.034;2023-05-23T02:18:19;100100.59;;;15.81;83.43
41800;BME280;27468;47.460;19.034;2023-05-23T02:20:45;100110.59;;;15.76;83.63
41800;BME280;27468;47.460;19.034;2023-05-23T02:23:11;100085.34;;;15.66;83.56
41800;BME280;27468;47.460;19.034;2023-05-23T02:25:36;100013.69;;;15.25;83.29
41800;BME280;27468;47.460;19.034;2023-05-23T02:28:02;100091.59;;;15.65;84.21
41800;BME280;27468;47.460;19.034;2023-05-23T02:30:27;100102.09;;;15.68;83.93
41800;BME280;27468;47.460;19.034;2023-05-23T02:32:52;100099.50;;;15.66;84.01
41800;BME280;27468;47.460;19.034;2023-05-23T02:35:18;100045.22;;;15.33;83.48
41800;BME280;27468;47.460;19.034;2023-05-23T02:37:44;100087.53;;;15.58;83.80
41800;BME280;27468;47.460;19.034;2023-05-23T02:40:09;100089.06;;;15.62;83.59
41800;BME280;27468;47.460;19.034;2023-05-23T02:42:35;100084.00;;;15.57;84.21
41800;BME280;27468;47.460;19.034;2023-05-23T02:45:00;100090.19;;;15.58;84.05
41800;BME280;27468;47.460;19.034;2023-05-23T02:47:26;100084.03;;;15.56;83.86
41800;BME280;27468;47.460;19.034;2023-05-23T02:49:51;100030.81;;;15.18;84.09
41800;BME280;27468;47.460;19.034;2023-05-23T02:52:17;100004.38;;;14.96;84.34
41800;BME280;27468;47.460;19.034;2023-05-23T02:54:42;100065.66;;;15.31;84.39
41800;BME280;27468;47.460;19.034;2023-05-23T02:57:07;100047.53;;;15.20;84.17
41800;BME280;27468;47.460;19.034;2023-05-23T02:59:33;100083.06;;;15.38;84.04
41800;BME280;27468;47.460;19.034;2023-05-23T03:01:58;100089.75;;;15.46;84.03
41800;BME280;27468;47.460;19.034;2023-05-23T03:04:24;100092.63;;;15.42;84.71
41800;BME280;27468;47.460;19.034;2023-05-23T03:06:50;100084.66;;;15.42;84.76
41800;BME280;27468;47.460;19.034;2023-05-23T03:09:18;100026.91;;;15.06;85.03
41800;BME280;27468;47.460;19.034;2023-05-23T03:11:44;100063.19;;;15.26;85.33
41800;BME280;27468;47.460;19.034;2023-05-23T03:14:09;100084.97;;;15.34;85.13
41800;BME280;27468;47.460;19.034;2023-05-23T03:16:35;100021.81;;;15.02;84.75
41800;BME280;27468;47.460;19.034;2023-05-23T03:19:00;100091.75;;;15.41;85.21
41800;BME280;27468;47.460;19.034;2023-05-23T03:21:26;100093.47;;;15.42;85.01
41800;BME280;27468;47.460;19.034;2023-05-23T03:23:51;100097.78;;;15.45;84.97
41800;BME280;27468;47.460;19.034;2023-05-23T03:26:16;100060.56;;;15.26;85.01
41800;BME280;27468;47.460;19.034;2023-05-23T03:28:42;100097.59;;;15.49;84.93
41800;BME280;27468;47.460;19.034;2023-05-23T03:31:07;100094.88;;;15.51;85.15
41800;BME280;27468;47.460;19.034;2023-05-23T03:33:33;100047.34;;;15.25;85.20
41800;BME280;27468;47.460;19.034;2023-05-23T03:35:58;100084.88;;;15.58;85.27
41800;BME280;27468;47.460;19.034;2023-05-23T03:38:23;100070.09;;;15.50;85.30
41800;BME280;27468;47.460;19.034;2023-05-23T03:40:49;100090.09;;;15.59;85.22
41800;BME280;27468;47.460;19.034;2023-05-23T03:43:14;100086.22;;;15.66;85.20
41800;BME280;27468;47.460;19.034;2023-05-23T03:45:40;100074.72;;;15.66;85.13
41800;BME280;27468;47.460;19.034;2023-05-23T03:48:05;100060.94;;;15.58;85.15
41800;BME280;27468;47.460;19.034;2023-05-23T03:50:31;100092.78;;;15.78;84.93
41800;BME280;27468;47.460;19.034;2023-05-23T03:52:56;100084.50;;;15.84;84.84
41800;BME280;27468;47.460;19.034;2023-05-23T03:55:23;100089.13;;;15.99;84.72
41800;BME280;27468;47.460;19.034;2023-05-23T03:57:50;100089.34;;;16.13;84.33
41800;BME280;27468;47.460;19.034;2023-05-23T04:00:16;100081.41;;;16.31;84.24
41800;BME280;27468;47.460;19.034;2023-05-23T04:02:43;100078.88;;;16.46;83.62
41800;BME280;27468;47.460;19.034;2023-05-23T04:05:10;100069.00;;;16.48;82.78
41800;BME280;27468;47.460;19.034;2023-05-23T04:07:36;100087.41;;;16.72;82.08
41800;BME280;27468;47.460;19.034;2023-05-23T04:10:02;100050.28;;;16.69;81.81
41800;BME280;27468;47.460;19.034;2023-05-23T04:12:28;100095.97;;;17.13;81.18
41800;BME280;27468;47.460;19.034;2023-05-23T04:14:55;100073.34;;;17.37;79.58
41800;BME280;27468;47.460;19.034;2023-05-23T04:17:22;100095.28;;;17.93;79.16
41800;BME280;27468;47.460;19.034;2023-05-23T04:19:48;100089.72;;;18.29;75.57
41800;BME280;27468;47.460;19.034;2023-05-23T04:22:14;100072.38;;;18.67;73.68
41800;BME280;27468;47.460;19.034;2023-05-23T04:24:39;100077.84;;;19.10;73.44
41800;BME280;27468;47.460;19.034;2023-05-23T04:27:05;100044.97;;;19.24;72.44
41800;BME280;27468;47.460;19.034;2023-05-23T04:29:32;100053.13;;;19.51;69.90
41800;BME280;27468;47.460;19.034;2023-05-23T04:31:58;100074.34;;;19.82;67.22
41800;BME280;27468;47.460;19.034;2023-05-23T04:34:23;100056.34;;;19.98;67.21
41800;BME280;27468;47.460;19.034;2023-05-23T04:36:49;100059.81;;;20.27;66.69
41800;BME280;27468;47.460;19.034;2023-05-23T04:39:14;100070.94;;;20.62;66.92
41800;BME280;27468;47.460;19.034;2023-05-23T04:41:41;100040.81;;;20.59;64.85
41800;BME280;27468;47.460;19.034;2023-05-23T04:44:08;100017.19;;;20.38;64.46
41800;BME280;27468;47.460;19.034;2023-05-23T04:46:34;100068.22;;;20.50;63.20
41800;BME280;27468;47.460;19.034;2023-05-23T04:49:01;100074.88;;;20.57;64.86
41800;BME280;27468;47.460;19.034;2023-05-23T04:51:26;100069.72;;;20.54;63.84
41800;BME280;27468;47.460;19.034;2023-05-23T04:53:52;100078.47;;;20.83;63.15
41800;BME280;27468;47.460;19.034;2023-05-23T04:56:17;100083.78;;;20.97;61.51
41800;BME280;27468;47.460;19.034;2023-05-23T04:58:47;100039.97;;;21.10;61.31
41800;BME280;27468;47.460;19.034;2023-05-23T05:01:13;100023.47;;;21.55;58.87
41800;BME280;27468;47.460;19.034;2023-05-23T05:03:39;100066.25;;;22.44;57.86
41800;BME280;27468;47.460;19.034;2023-05-23T05:06:04;100074.91;;;22.84;56.12
41800;BME280;27468;47.460;19.034;2023-05-23T05:08:31;100039.22;;;22.82;54.78
41800;BME280;27468;47.460;19.034;2023-05-23T05:10:56;100024.78;;;22.83;55.09
41800;BME280;27468;47.460;19.034;2023-05-23T05:13:22;100062.34;;;22.71;54.83
41800;BME280;27468;47.460;19.034;2023-05-23T05:15:47;100075.16;;;22.44;55.36
41800;BME280;27468;47.460;19.034;2023-05-23T05:18:12;100049.63;;;21.89;56.58
41800;BME280;27468;47.460;19.034;2023-05-23T05:20:38;100029.28;;;21.49;57.32
41800;BME280;27468;47.460;19.034;2023-05-23T05:23:03;100060.38;;;21.38;58.02
41800;BME280;27468;47.460;19.034;2023-05-23T05:25:29;100061.16;;;21.28;58.53
41800;BME280;27468;47.460;19.034;2023-05-23T05:28:05;100070.91;;;21.29;59.16
41800;BME280;27468;47.460;19.034;2023-05-23T05:30:31;100076.19;;;21.03;59.12
41800;BME280;27468;47.460;19.034;2023-05-23T05:33:01;100035.09;;;20.77;59.32
41800;BME280;27468;47.460;19.034;2023-05-23T05:35:29;100045.06;;;20.75;58.90
41800;BME280;27468;47.460;19.034;2023-05-23T05:37:55;100063.63;;;20.91;58.88
41800;BME280;27468;47.460;19.034;2023-05-23T05:40:20;100060.69;;;20.82;59.27
41800;BME280;27468;47.460;19.034;2023-05-23T05:42:46;100022.22;;;20.43;59.56
41800;BME280;27468;47.460;19.034;2023-05-23T05:45:11;100063.66;;;20.64;59.50
41800;BME280;27468;47.460;19.034;2023-05-23T05:47:37;100070.78;;;20.78;59.25
41800;BME280;27468;47.460;19.034;2023-05-23T05:50:04;100059.41;;;20.74;59.68
41800;BME280;27468;47.460;19.034;2023-05-23T05:52:30;100061.56;;;20.82;59.19
41800;BME280;27468;47.460;19.034;2023-05-23T05:54:56;100060.38;;;20.73;58.85
41800;BME280;27468;47.460;19.034;2023-05-23T05:57:22;100069.69;;;20.81;59.21
41800;BME280;27468;47.460;19.034;2023-05-23T05:59:47;100064.41;;;20.66;58.67
41800;BME280;27468;47.460;19.034;2023-05-23T06:02:13;100009.16;;;20.38;59.23
41800;BME280;27468;47.460;19.034;2023-05-23T06:04:38;100068.72;;;20.82;58.09
41800;BME280;27468;47.460;19.034;2023-05-23T06:07:04;100068.53;;;20.85;59.02
41800;BME280;27468;47.460;19.034;2023-05-23T06:09:29;100072.50;;;20.92;57.57
41800;BME280;27468;47.460;19.034;2023-05-23T06:11:54;100063.47;;;20.80;58.11
41800;BME280;27468;47.460;19.034;2023-05-23T06:14:20;100060.69;;;20.82;58.30
41800;BME280;27468;47.460;19.034;2023-05-23T06:16:45;100019.19;;;20.62;58.33
41800;BME280;27468;47.460;19.034;2023-05-23T06:19:11;100016.66;;;20.73;58.20
41800;BME280;27468;47.460;19.034;2023-05-23T06:21:36;100064.28;;;21.07;58.20
41800;BME280;27468;47.460;19.034;2023-05-23T06:24:01;100066.31;;;21.04;58.03
41800;BME280;27468;47.460;19.034;2023-05-23T06:26:27;100035.97;;;20.91;57.54
41800;BME280;27468;47.460;19.034;2023-05-23T06:28:52;100066.56;;;21.14;56.81
41800;BME280;27468;47.460;19.034;2023-05-23T06:31:17;100019.56;;;20.95;55.92
41800;BME280;27468;47.460;19.034;2023-05-23T06:33:43;100054.31;;;21.09;57.26
41800;BME280;27468;47.460;19.034;2023-05-23T06:36:08;100049.94;;;21.08;57.19
41800;BME280;27468;47.460;19.034;2023-05-23T06:38:34;100065.00;;;21.24;57.12
41800;BME280;27468;47.460;19.034;2023-05-23T06:40:59;100073.03;;;21.24;56.94
41800;BME280;27468;47.460;19.034;2023-05-23T06:43:25;100074.13;;;21.21;56.67
41800;BME280;27468;47.460;19.034;2023-05-23T06:45:51;100043.19;;;21.16;56.84
41800;BME280;27468;47.460;19.034;2023-05-23T06:48:16;100040.00;;;21.23;56.77
41800;BME280;27468;47.460;19.034;2023-05-23T06:50:42;100065.09;;;21.48;56.18
41800;BME280;27468;47.460;19.034;2023-05-23T06:53:07;100019.81;;;21.18;55.68
41800;BME280;27468;47.460;19.034;2023-05-23T06:55:33;100053.53;;;21.34;56.52
41800;BME280;27468;47.460;19.034;2023-05-23T06:57:59;100058.44;;;21.40;57.18
41800;BME280;27468;47.460;19.034;2023-05-23T07:00:25;100060.16;;;21.54;57.09
41800;BME280;27468;47.460;19.034;2023-05-23T07:02:50;100058.56;;;21.64;57.25
41800;BME280;27468;47.460;19.034;2023-05-23T07:05:15;100057.06;;;21.60;57.64
41800;BME280;27468;47.460;19.034;2023-05-23T07:07:41;100043.84;;;21.57;57.14
41800;BME280;27468;47.460;19.034;2023-05-23T07:10:08;100030.78;;;21.53;56.66
41800;BME280;27468;47.460;19.034;2023-05-23T07:12:33;100034.53;;;21.63;56.44
41800;BME280;27468;47.460;19.034;2023-05-23T07:14:59;100060.47;;;21.75;55.93
41800;BME280;27468;47.460;19.034;2023-05-23T07:17:24;100032.91;;;21.73;55.71
41800;BME280;27468;47.460;19.034;2023-05-23T07:19:50;100029.03;;;21.77;55.11
41800;BME280;27468;47.460;19.034;2023-05-23T07:22:15;100047.91;;;21.88;55.15
41800;BME280;27468;47.460;19.034;2023-05-23T07:24:41;100024.84;;;21.86;56.22
41800;BME280;27468;47.460;19.034;2023-05-23T07:27:06;99995.88;;;21.65;56.59
41800;BME280;27468;47.460;19.034;2023-05-23T07:29:31;100022.78;;;21.89;57.02
41800;BME280;27468;47.460;19.034;2023-05-23T07:31:57;100001.75;;;21.83;56.09
41800;BME280;27468;47.460;19.034;2023-05-23T07:34:23;99984.91;;;21.81;55.20
41800;BME280;27468;47.460;19.034;2023-05-23T07:36:51;100035.19;;;22.16;55.48
41800;BME280;27468;47.460;19.034;2023-05-23T07:39:16;100041.59;;;22.26;55.67
41800;BME280;27468;47.460;19.034;2023-05-23T07:41:46;100038.06;;;22.25;56.28
41800;BME280;27468;47.460;19.034;2023-05-23T07:44:11;100041.47;;;22.27;56.04
41800;BME280;27468;47.460;19.034;2023-05-23T07:46:37;100015.09;;;22.21;56.11
41800;BME280;27468;47.460;19.034;2023-05-23T07:49:02;100017.53;;;22.24;56.50
41800;BME280;27468;47.460;19.034;2023-05-23T07:51:28;100026.41;;;22.37;56.60
41800;BME280;27468;47.460;19.034;2023-05-23T07:53:53;100022.63;;;22.40;56.18
41800;BME280;27468;47.460;19.034;2023-05-23T07:56:18;100020.69;;;22.42;55.85
41800;BME280;27468;47.460;19.034;2023-05-23T07:58:44;100020.72;;;22.53;55.53
41800;BME280;27468;47.460;19.034;2023-05-23T08:01:09;99996.75;;;22.39;54.79
41800;BME280;27468;47.460;19.034;2023-05-23T08:03:35;100027.47;;;22.59;54.59
41800;BME280;27468;47.460;19.034;2023-05-23T08:06:01;100021.06;;;22.72;54.82
41800;BME280;27468;47.460;19.034;2023-05-23T08:08:27;99987.91;;;22.61;54.12
41800;BME280;27468;47.460;19.034;2023-05-23T08:10:52;99978.47;;;22.55;54.74
41800;BME280;27468;47.460;19.034;2023-05-23T08:13:17;100005.44;;;22.78;54.74
41800;BME280;27468;47.460;19.034;2023-05-23T08:15:43;100006.59;;;22.86;54.35
41800;BME280;27468;47.460;19.034;2023-05-23T08:18:08;99996.72;;;22.87;53.27
41800;BME280;27468;47.460;19.034;2023-05-23T08:20:33;99960.59;;;22.78;53.74
41800;BME280;27468;47.460;19.034;2023-05-23T08:23:00;99957.41;;;22.73;54.38
41800;BME280;27468;47.460;19.034;2023-05-23T08:25:26;100024.50;;;23.21;53.55
41800;BME280;27468;47.460;19.034;2023-05-23T08:27:55;99981.34;;;23.00;52.21
41800;BME280;27468;47.460;19.034;2023-05-23T08:30:22;100019.28;;;23.30;52.18
41800;BME280;27468;47.460;19.034;2023-05-23T08:32:47;100028.69;;;23.36;52.68
41800;BME280;27468;47.460;19.034;2023-05-23T08:35:13;100013.16;;;23.28;52.59
41800;BME280;27468;47.460;19.034;2023-05-23T08:37:38;99968.41;;;23.16;52.32
41800;BME280;27468;47.460;19.034;2023-05-23T08:40:06;100019.66;;;23.48;52.38
41800;BME280;27468;47.460;19.034;2023-05-23T08:42:33;100018.13;;;23.57;52.18
41800;BME280;27468;47.460;19.034;2023-05-23T08:44:58;99989.47;;;23.45;52.58
41800;BME280;27468;47.460;19.034;2023-05-23T08:47:24;99979.56;;;23.45;53.16
41800;BME280;27468;47.460;19.034;2023-05-23T08:49:51;100000.84;;;23.70;52.25
41800;BME280;27468;47.460;19.034;2023-05-23T08:52:20;99985.59;;;23.60;52.08
41800;BME280;27468;47.460;19.034;2023-05-23T08:54:49;100011.25;;;23.86;52.79
41800;BME280;27468;47.460;19.034;2023-05-23T08:57:15;99986.53;;;23.81;51.76
41800;BME280;27468;47.460;19.034;2023-05-23T08:59:41;99983.72;;;23.83;51.96
41800;BME280;27468;47.460;19.034;2023-05-23T09:02:10;99999.00;;;23.93;51.72
41800;BME280;27468;47.460;19.034;2023-05-23T09:04:38;100018.44;;;24.08;51.09
41800;BME280;27468;47.460;19.034;2023-05-23T09:07:04;100010.25;;;24.10;50.71
41800;BME280;27468;47.460;19.034;2023-05-23T09:09:30;99968.78;;;23.90;50.96
41800;BME280;27468;47.460;19.034;2023-05-23T09:11:57;99977.69;;;24.01;50.84
41800;BME280;27468;47.460;19.034;2023-05-23T09:14:24;99965.34;;;23.99;49.86
41800;BME280;27468;47.460;19.034;2023-05-23T09:16:50;100019.25;;;24.31;50.25
41800;BME280;27468;47.460;19.034;2023-05-23T09:19:17;99971.56;;;24.11;50.06
41800;BME280;27468;47.460;19.034;2023-05-23T09:21:43;99964.94;;;24.15;49.49
41800;BME280;27468;47.460;19.034;2023-05-23T09:24:10;99989.63;;;24.31;49.33
41800;BME280;27468;47.460;19.034;2023-05-23T09:26:36;100002.69;;;24.47;49.06
41800;BME280;27468;47.460;19.034;2023-05-23T09:29:04;99972.59;;;24.30;49.49
41800;BME280;27468;47.460;19.034;2023-05-23T09:31:31;99995.53;;;24.57;49.62
41800;BME280;27468;47.460;19.034;2023-05-23T09:33:57;100000.16;;;24.66;49.16
41800;BME280;27468;47.460;19.034;2023-05-23T09:36:26;100005.50;;;24.77;49.09
41800;BME280;27468;47.460;19.034;2023-05-23T09:38:53;99989.72;;;24.73;49.30
41800;BME280;27468;47.460;19.034;2023-05-23T09:41:19;99951.69;;;24.55;49.24
41800;BME280;27468;47.460;19.034;2023-05-23T09:43:49;100000.03;;;24.88;49.10
41800;BME280;27468;47.460;19.034;2023-05-23T09:46:16;99987.75;;;24.75;49.97
41800;BME280;27468;47.460;19.034;2023-05-23T09:48:46;100001.88;;;24.88;51.01
41800;BME280;27468;47.460;19.034;2023-05-23T09:51:12;99961.44;;;24.67;50.57
41800;BME280;27468;47.460;19.034;2023-05-23T09:53:37;99971.69;;;24.73;51.42
41800;BME280;27468;47.460;19.034;2023-05-23T09:56:03;99993.13;;;24.95;51.16
41800;BME280;27468;47.460;19.034;2023-05-23T09:58:29;99977.72;;;24.86;49.72
41800;BME280;27468;47.460;19.034;2023-05-23T10:00:59;99997.38;;;25.09;49.04
41800;BME280;27468;47.460;19.034;2023-05-23T10:03:34;99962.59;;;24.95;47.42
41800;BME280;27468;47.460;19.034;2023-05-23T10:06:14;99942.63;;;24.97;47.64
41800;BME280;27468;47.460;19.034;2023-05-23T10:08:43;99996.25;;;25.32;49.89
41800;BME280;27468;47.460;19.034;2023-05-23T10:13:48;99978.06;;;25.34;48.71
41800;BME280;27468;47.460;19.034;2023-05-23T10:16:41;99989.53;;;25.57;48.77
41800;BME280;27468;47.460;19.034;2023-05-23T10:19:23;99979.81;;;25.76;45.28
41800;BME280;27468;47.460;19.034;2023-05-23T10:21:55;99960.38;;;25.82;45.63
41800;BME280;27468;47.460;19.034;2023-05-23T10:24:23;99952.31;;;25.91;45.61
41800;BME280;27468;47.460;19.034;2023-05-23T10:26:50;99977.94;;;26.26;44.44
41800;BME280;27468;47.460;19.034;2023-05-23T10:29:16;99929.44;;;26.15;43.55
41800;BME280;27468;47.460;19.034;2023-05-23T10:31:42;99960.50;;;26.40;42.51
41800;BME280;27468;47.460;19.034;2023-05-23T10:36:59;99941.00;;;26.55;43.64
41800;BME280;27468;47.460;19.034;2023-05-23T10:45:17;99959.16;;;26.92;44.48
41800;BME280;27468;47.460;19.034;2023-05-23T10:47:43;99960.19;;;27.01;43.91
41800;BME280;27468;47.460;19.034;2023-05-23T10:50:13;99931.41;;;27.00;43.59
41800;BME280;27468;47.460;19.034;2023-05-23T10:52:41;99923.44;;;26.98;43.49
41800;BME280;27468;47.460;19.034;2023-05-23T10:55:14;99960.34;;;27.36;42.24
41800;BME280;27468;47.460;19.034;2023-05-23T10:57:42;99912.53;;;27.17;43.00
41800;BME280;27468;47.460;19.034;2023-05-23T11:00:15;99914.72;;;27.14;43.54
41800;BME280;27468;47.460;19.034;2023-05-23T11:02:53;99938.53;;;27.38;42.32
41800;BME280;27468;47.460;19.034;2023-05-23T11:05:23;99952.19;;;27.46;41.18
41800;BME280;27468;47.460;19.034;2023-05-23T11:08:11;99942.03;;;27.57;40.88
41800;BME280;27468;47.460;19.034;2023-05-23T11:11:03;99900.34;;;27.41;41.40
41800;BME280;27468;47.460;19.034;2023-05-23T11:13:57;99936.91;;;27.54;41.31
41800;BME280;27468;47.460;19.034;2023-05-23T11:21:45;99926.03;;;27.27;42.14
41800;BME280;27468;47.460;19.034;2023-05-23T11:24:11;99866.63;;;26.88;42.66
41800;BME280;27468;47.460;19.034;2023-05-23T11:26:36;99922.22;;;27.20;42.18
41800;BME280;27468;47.460;19.034;2023-05-23T11:29:02;99875.72;;;27.07;39.69
41800;BME280;27468;47.460;19.034;2023-05-23T11:31:36;99883.09;;;27.14;40.44
41800;BME280;27468;47.460;19.034;2023-05-23T11:34:02;99885.09;;;27.12;42.16
41800;BME280;27468;47.460;19.034;2023-05-23T11:36:27;99907.69;;;27.21;41.87
41800;BME280;27468;47.460;19.034;2023-05-23T11:38:54;99902.66;;;27.36;41.84
41800;BME280;27468;47.460;19.034;2023-05-23T11:41:21;99887.47;;;27.15;42.70
41800;BME280;27468;47.460;19.034;2023-05-23T11:43:50;99905.25;;;27.27;42.71
41800;BME280;27468;47.460;19.034;2023-05-23T11:46:16;99898.50;;;27.14;42.11
41800;BME280;27468;47.460;19.034;2023-05-23T11:48:45;99863.38;;;26.85;42.96
41800;BME280;27468;47.460;19.034;2023-05-23T11:51:11;99892.09;;;27.05;42.84
41800;BME280;27468;47.460;19.034;2023-05-23T11:53:37;99899.38;;;27.05;42.97
41800;BME280;27468;47.460;19.034;2023-05-23T11:56:03;99894.53;;;26.99;43.18
41800;BME280;27468;47.460;19.034;2023-05-23T11:58:36;99847.59;;;26.71;43.64
41800;BME280;27468;47.460;19.034;2023-05-23T12:01:06;99893.53;;;26.90;44.07
41800;BME280;27468;47.460;19.034;2023-05-23T12:03:49;99870.22;;;26.79;43.95
41800;BME280;27468;47.460;19.034;2023-05-23T12:06:18;99854.84;;;26.80;42.81
41800;BME280;27468;47.460;19.034;2023-05-23T12:08:45;99848.44;;;26.71;43.58
41800;BME280;27468;47.460;19.034;2023-05-23T12:11:12;99854.44;;;26.75;43.74
41800;BME280;27468;47.460;19.034;2023-05-23T12:13:40;99822.56;;;26.59;43.95
41800;BME280;27468;47.460;19.034;2023-05-23T12:16:06;99818.94;;;26.50;44.47
41800;BME280;27468;47.460;19.034;2023-05-23T12:18:33;99856.41;;;26.73;43.07
41800;BME280;27468;47.460;19.034;2023-05-23T12:21:01;99831.09;;;26.64;43.58
41800;BME280;27468;47.460;19.034;2023-05-23T12:23:27;99843.88;;;26.81;43.05
41800;BME280;27468;47.460;19.034;2023-05-23T12:25:54;99847.28;;;26.83;42.32
41800;BME280;27468;47.460;19.034;2023-05-23T12:28:20;99814.97;;;26.82;42.00
41800;BME280;27468;47.460;19.034;2023-05-23T12:30:58;99830.03;;;26.94;41.82
41800;BME280;27468;47.460;19.034;2023-05-23T12:33:24;99818.59;;;27.10;40.16
41800;BME280;27468;47.460;19.034;2023-05-23T12:35:50;99796.16;;;27.00;41.51
41800;BME280;27468;47.460;19.034;2023-05-23T12:38:15;99811.63;;;27.07;41.41
41800;BME280;27468;47.460;19.034;2023-05-23T12:40:41;99771.59;;;26.74;41.27
41800;BME280;27468;47.460;19.034;2023-05-23T12:43:08;99823.91;;;27.02;41.82
41800;BME280;27468;47.460;19.034;2023-05-23T12:45:35;99828.16;;;26.94;41.85
41800;BME280;27468;47.460;19.034;2023-05-23T12:48:09;99822.19;;;27.01;39.95
41800;BME280;27468;47.460;19.034;2023-05-23T12:50:35;99765.59;;;26.80;40.49
41800;BME280;27468;47.460;19.034;2023-05-23T12:53:00;99781.94;;;26.88;40.58
41800;BME280;27468;47.460;19.034;2023-05-23T12:55:26;99795.84;;;26.93;40.24
41800;BME280;27468;47.460;19.034;2023-05-23T12:57:51;99807.56;;;26.84;40.43
41800;BME280;27468;47.460;19.034;2023-05-23T13:00:17;99798.84;;;26.90;38.99
41800;BME280;27468;47.460;19.034;2023-05-23T13:02:43;99781.09;;;26.78;40.46
41800;BME280;27468;47.460;19.034;2023-05-23T13:05:08;99782.78;;;26.88;40.90
41800;BME280;27468;47.460;19.034;2023-05-23T13:07:34;99794.00;;;26.93;40.92